sensor_id;sensor_type;location;lat;lon;timestamp;temperature;humidity
9265;DHT22;4669;49.594;10.958;2023-03-12T05:30:10;0.70;99.90
9265;DHT22;4669;49.594;10.958;2023-03-12T05:35:12;0.70;99.90
9265;DHT22;4669;49.594;10.958;2023-03-12T05:40:15;0.70;99.90
9265;DHT22;4669;49.594;10.958;2023-03-12T05:45:19;0.70;99.90
9265;DHT22;4669;49.594;10.958;2023-03-12T05:50:25;0.80;99.90
9265;DHT22;4669;49.594;10.958;2023-03-12T05:55:27;0.80;99.90
9265;DHT22;4669;49.594;10.958;2023-03-12T06:00:31;0.80;99.90
9265;DHT22;4669;49.594;10.958;2023-03-12T06:05:36;0.90;99.90
9265;DHT22;4669;49.594;10.958;2023-03-12T06:10:38;0.90;99.90
9265;DHT22;4669;49.594;10.958;2023-03-12T06:15:42;0.90;99.90
9265;DHT22;4669;49.594;10.958;2023-03-12T06:20:45;0.80;99.90
9265;DHT22;4669;49.594;10.958;2023-03-12T06:25:47;0.90;99.90
9265;DHT22;4669;49.594;10.958;2023-03-12T06:30:51;0.90;99.90
9265;DHT22;4669;49.594;10.958;2023-03-12T06:35:54;1.00;99.90
9265;DHT22;4669;49.594;10.958;2023-03-12T06:40:58;1.00;99.90
9265;DHT22;4669;49.594;10.958;2023-03-12T06:46:03;1.10;99.90
9265;DHT22;4669;49.594;10.958;2023-03-12T06:51:06;1.20;99.90
9265;DHT22;4669;49.594;10.958;2023-03-12T06:56:09;1.30;99.90
9265;DHT22;4669;49.594;10.958;2023-03-12T07:01:12;1.30;99.90
9265;DHT22;4669;49.594;10.958;2023-03-12T07:06:16;1.30;99.90
9265;DHT22;4669;49.594;10.958;2023-03-12T07:11:18;1.30;99.90
9265;DHT22;4669;49.594;10.958;2023-03-12T07:16:22;1.40;99.90
9265;DHT22;4669;49.594;10.958;2023-03-12T07:21:24;1.50;99.90
9265;DHT22;4669;49.594;10.958;2023-03-12T07:26:26;1.60;99.90
9265;DHT22;4669;49.594;10.958;2023-03-12T07:31:30;1.70;99.90
9265;DHT22;4669;49.594;10.958;2023-03-12T07:36:32;1.80;99.90
9265;DHT22;4669;49.594;10.958;2023-03-12T07:41:34;1.90;99.90
9265;DHT22;4669;49.594;10.958;2023-03-12T07:46:40;2.00;99.90
9265;DHT22;4669;49.594;10.958;2023-03-12T07:51:42;2.10;99.90
9265;DHT22;4669;49.594;10.958;2023-03-12T07:56:43;2.20;99.90
9265;DHT22;4669;49.594;10.958;2023-03-12T08:01:47;2.30;99.90
9265;DHT22;4669;49.594;10.958;2023-03-12T08:06:49;2.50;99.90
9265;DHT22;4669;49.594;10.958;2023-03-12T08:11:51;2.40;99.90
9265;DHT22;4669;49.594;10.958;2023-03-12T08:16:54;2.50;99.90
9265;DHT22;4669;49.594;10.958;2023-03-12T08:21:56;2.40;99.90
9265;DHT22;4669;49.594;10.958;2023-03-12T08:26:58;2.50;99.90
9265;DHT22;4669;49.594;10.958;2023-03-12T08:32:01;2.60;99.90
9265;DHT22;4669;49.594;10.958;2023-03-12T08:37:04;2.70;99.90
9265;DHT22;4669;49.594;10.958;2023-03-12T08:42:06;2.80;99.90
9265;DHT22;4669;49.594;10.958;2023-03-12T08:47:10;2.90;99.90
9265;DHT22;4669;49.594;10.958;2023-03-12T08:52:12;3.10;99.90
9265;DHT22;4669;49.594;10.958;2023-03-12T08:57:14;3.20;99.90
9265;DHT22;4669;49.594;10.958;2023-03-12T09:02:17;3.20;99.90
9265;DHT22;4669;49.594;10.958;2023-03-12T09:07:19;3.30;99.90
9265;DHT22;4669;49.594;10.958;2023-03-12T09:12:22;3.40;99.90
9265;DHT22;4669;49.594;10.958;2023-03-12T09:17:27;3.40;99.90
9265;DHT22;4669;49.594;10.958;2023-03-12T09:22:29;3.50;99.90
9265;DHT22;4669;49.594;10.958;2023-03-12T09:27:35;3.60;99.90
9265;DHT22;4669;49.594;10.958;2023-03-12T09:32:39;3.90;99.90
9265;DHT22;4669;49.594;10.958;2023-03-12T09:37:41;3.90;99.90
9265;DHT22;4669;49.594;10.958;2023-03-12T09:42:46;4.20;99.90
9265;DHT22;4669;49.594;10.958;2023-03-12T09:47:53;4.30;99.90
9265;DHT22;4669;49.594;10.958;2023-03-12T09:52:58;4.40;99.90
9265;DHT22;4669;49.594;10.958;2023-03-12T09:58:01;4.50;99.90
9265;DHT22;4669;49.594;10.958;2023-03-12T10:03:22;4.60;99.90
9265;DHT22;4669;49.594;10.958;2023-03-12T10:08:32;4.70;99.90
9265;DHT22;4669;49.594;10.958;2023-03-12T10:13:50;4.70;99.90
9265;DHT22;4669;49.594;10.958;2023-03-12T10:19:04;4.80;99.90
9265;DHT22;4669;49.594;10.958;2023-03-12T10:24:20;5.00;99.90
9265;DHT22;4669;49.594;10.958;2023-03-12T10:29:25;5.10;99.90
9265;DHT22;4669;49.594;10.958;2023-03-12T10:34:36;5.30;99.90
9265;DHT22;4669;49.594;10.958;2023-03-12T10:39:40;5.30;99.90
9265;DHT22;4669;49.594;10.958;2023-03-12T10:44:42;5.30;99.90
9265;DHT22;4669;49.594;10.958;2023-03-12T10:49:45;5.30;99.90
9265;DHT22;4669;49.594;10.958;2023-03-12T10:54:51;5.50;99.90
9265;DHT22;4669;49.594;10.958;2023-03-12T11:00:04;5.40;99.90
9265;DHT22;4669;49.594;10.958;2023-03-12T11:05:21;5.20;99.90
9265;DHT22;4669;49.594;10.958;2023-03-12T11:10:26;5.20;99.90
9265;DHT22;4669;49.594;10.958;2023-03-12T11:15:39;5.20;99.90
9265;DHT22;4669;49.594;10.958;2023-03-12T11:20:43;5.10;99.90
9265;DHT22;4669;49.594;10.958;2023-03-12T11:25:51;5.10;99.90
9265;DHT22;4669;49.594;10.958;2023-03-12T11:30:55;5.10;99.90
9265;DHT22;4669;49.594;10.958;2023-03-12T11:36:12;5.00;99.90
9265;DHT22;4669;49.594;10.958;2023-03-12T11:41:30;5.10;99.90
9265;DHT22;4669;49.594;10.958;2023-03-12T11:46:45;5.00;99.90
9265;DHT22;4669;49.594;10.958;2023-03-12T11:51:56;5.10;99.90
9265;DHT22;4669;49.594;10.958;2023-03-12T11:57:05;5.20;99.90
9265;DHT22;4669;49.594;10.958;2023-03-12T12:02:19;5.20;99.90
9265;DHT22;4669;49.594;10.958;2023-03-12T12:07:34;5.30;99.90
9265;DHT22;4669;49.594;10.958;2023-03-12T12:12:48;5.30;99.90
9265;DHT22;4669;49.594;10.958;2023-03-12T12:18:01;5.40;99.90
9265;DHT22;4669;49.594;10.958;2023-03-12T12:23:23;5.40;99.90
9265;DHT22;4669;49.594;10.958;2023-03-12T12:28:40;5.50;99.90
9265;DHT22;4669;49.594;10.958;2023-03-12T12:33:56;5.40;99.90
9265;DHT22;4669;49.594;10.958;2023-03-12T12:39:08;5.40;99.90
9265;DHT22;4669;49.594;10.958;2023-03-12T12:44:14;5.30;99.90
9265;DHT22;4669;49.594;10.958;2023-03-12T12:49:21;5.40;99.90
9265;DHT22;4669;49.594;10.958;2023-03-12T12:54:30;5.40;99.90
9265;DHT22;4669;49.594;10.958;2023-03-12T12:59:36;5.50;99.90
9265;DHT22;4669;49.594;10.958;2023-03-12T13:04:40;5.60;99.90
9265;DHT22;4669;49.594;10.958;2023-03-12T13:09:46;5.60;99.90
9265;DHT22;4669;49.594;10.958;2023-03-12T13:14:51;5.60;99.90
9265;DHT22;4669;49.594;10.958;2023-03-12T13:19:58;5.60;99.90
9265;DHT22;4669;49.594;10.958;2023-03-12T13:25:15;5.70;99.90
9265;DHT22;4669;49.594;10.958;2023-03-12T13:30:49;5.70;99.90
9265;DHT22;4669;49.594;10.958;2023-03-12T13:36:11;5.70;99.90
9265;DHT22;4669;49.594;10.958;2023-03-12T13:41:33;5.70;99.90
9265;DHT22;4669;49.594;10.958;2023-03-12T13:46:39;5.70;99.90
9265;DHT22;4669;49.594;10.958;2023-03-12T13:57:24;5.80;99.90
9265;DHT22;4669;49.594;10.958;2023-03-12T14:02:28;5.90;99.90
9265;DHT22;4669;49.594;10.958;2023-03-12T14:08:07;6.00;99.90
9265;DHT22;4669;49.594;10.958;2023-03-12T14:13:27;5.90;99.90
9265;DHT22;4669;49.594;10.958;2023-03-12T14:18:33;5.90;99.90
9265;DHT22;4669;49.594;10.958;2023-03-12T14:23:38;5.90;99.90
9265;DHT22;4669;49.594;10.958;2023-03-12T14:28:56;5.90;99.90
9265;DHT22;4669;49.594;10.958;2023-03-12T14:34:04;6.00;99.90
9265;DHT22;4669;49.594;10.958;2023-03-12T14:39:14;5.90;99.90
9265;DHT22;4669;49.594;10.958;2023-03-12T14:44:23;5.90;99.90
9265;DHT22;4669;49.594;10.958;2023-03-12T14:49:25;5.80;99.90
9265;DHT22;4669;49.594;10.958;2023-03-12T14:54:27;5.90;99.90
9265;DHT22;4669;49.594;10.958;2023-03-12T14:59:33;5.90;99.90
9265;DHT22;4669;49.594;10.958;2023-03-12T15:04:38;5.90;99.90
9265;DHT22;4669;49.594;10.958;2023-03-12T15:09:42;6.10;99.90
9265;DHT22;4669;49.594;10.958;2023-03-12T15:14:47;6.30;99.90
9265;DHT22;4669;49.594;10.958;2023-03-12T15:19:50;6.70;99.90
9265;DHT22;4669;49.594;10.958;2023-03-12T15:24:54;7.00;99.90
9265;DHT22;4669;49.594;10.958;2023-03-12T15:29:59;7.20;99.90
9265;DHT22;4669;49.594;10.958;2023-03-12T15:35:11;7.30;99.90
9265;DHT22;4669;49.594;10.958;2023-03-12T15:40:19;7.50;99.90
9265;DHT22;4669;49.594;10.958;2023-03-12T15:45:26;7.50;99.90
9265;DHT22;4669;49.594;10.958;2023-03-12T15:50:31;7.70;99.90
9265;DHT22;4669;49.594;10.958;2023-03-12T15:55:35;7.80;99.90
9265;DHT22;4669;49.594;10.958;2023-03-12T16:00:42;7.80;99.90
9265;DHT22;4669;49.594;10.958;2023-03-12T16:05:45;7.70;99.90
9265;DHT22;4669;49.594;10.958;2023-03-12T16:10:48;7.70;99.90
9265;DHT22;4669;49.594;10.958;2023-03-12T16:15:51;7.90;99.90
9265;DHT22;4669;49.594;10.958;2023-03-12T16:20:53;7.90;99.90
9265;DHT22;4669;49.594;10.958;2023-03-12T16:25:57;7.90;99.90
9265;DHT22;4669;49.594;10.958;2023-03-12T16:31:00;7.80;99.90
9265;DHT22;4669;49.594;10.958;2023-03-12T16:36:05;7.70;99.90
9265;DHT22;4669;49.594;10.958;2023-03-12T16:41:10;7.60;99.90
9265;DHT22;4669;49.594;10.958;2023-03-12T16:46:15;7.50;99.90
9265;DHT22;4669;49.594;10.958;2023-03-12T16:51:19;7.60;99.90
9265;DHT22;4669;49.594;10.958;2023-03-12T16:56:23;7.50;99.90
9265;DHT22;4669;49.594;10.958;2023-03-12T17:01:27;7.30;99.90
9265;DHT22;4669;49.594;10.958;2023-03-12T17:06:29;7.10;99.90
9265;DHT22;4669;49.594;10.958;2023-03-12T17:11:32;6.90;99.90
9265;DHT22;4669;49.594;10.958;2023-03-12T17:16:36;6.90;99.90
9265;DHT22;4669;49.594;10.958;2023-03-12T17:21:38;6.90;99.90
9265;DHT22;4669;49.594;10.958;2023-03-12T17:26:40;6.80;99.90
9265;DHT22;4669;49.594;10.958;2023-03-12T17:31:44;6.80;99.90
9265;DHT22;4669;49.594;10.958;2023-03-12T17:36:46;6.90;99.90
9265;DHT22;4669;49.594;10.958;2023-03-12T17:41:48;6.90;99.90
9265;DHT22;4669;49.594;10.958;2023-03-12T17:46:51;6.90;99.90
9265;DHT22;4669;49.594;10.958;2023-03-12T17:51:53;6.90;99.90
9265;DHT22;4669;49.594;10.958;2023-03-12T17:56:55;7.00;99.90
9265;DHT22;4669;49.594;10.958;2023-03-12T18:01:58;6.90;99.90
9265;DHT22;4669;49.594;10.958;2023-03-12T18:07:00;6.90;99.90
9265;DHT22;4669;49.594;10.958;2023-03-12T18:12:03;6.90;99.90
9265;DHT22;4669;49.594;10.958;2023-03-12T18:17:06;6.90;99.90
9265;DHT22;4669;49.594;10.958;2023-03-12T18:22:08;6.90;99.90
9265;DHT22;4669;49.594;10.958;2023-03-12T18:27:13;6.90;99.90
9265;DHT22;4669;49.594;10.958;2023-03-12T18:32:17;6.90;99.90
9265;DHT22;4669;49.594;10.958;2023-03-12T18:37:19;6.90;99.90
9265;DHT22;4669;49.594;10.958;2023-03-12T18:42:21;6.80;99.90
9265;DHT22;4669;49.594;10.958;2023-03-12T18:47:24;6.80;99.90
9265;DHT22;4669;49.594;10.958;2023-03-12T18:52:26;6.80;99.90
9265;DHT22;4669;49.594;10.958;2023-03-12T18:57:28;6.80;99.90
9265;DHT22;4669;49.594;10.958;2023-03-12T19:02:31;6.90;99.90
9265;DHT22;4669;49.594;10.958;2023-03-12T19:07:33;6.90;99.90
9265;DHT22;4669;49.594;10.958;2023-03-12T19:12:35;6.90;99.90
9265;DHT22;4669;49.594;10.958;2023-03-12T19:17:39;6.90;99.90
9265;DHT22;4669;49.594;10.958;2023-03-12T19:22:41;6.90;99.90
9265;DHT22;4669;49.594;10.958;2023-03-12T19:27:43;6.90;99.90
9265;DHT22;4669;49.594;10.958;2023-03-12T19:32:46;6.90;99.90
9265;DHT22;4669;49.594;10.958;2023-03-12T19:37:48;6.90;99.90
9265;DHT22;4669;49.594;10.958;2023-03-12T19:42:50;6.80;99.90
9265;DHT22;4669;49.594;10.958;2023-03-12T19:47:53;6.90;99.90
9265;DHT22;4669;49.594;10.958;2023-03-12T19:52:55;7.00;99.90
9265;DHT22;4669;49.594;10.958;2023-03-12T19:57:57;7.00;99.90
9265;DHT22;4669;49.594;10.958;2023-03-12T20:03:01;7.00;99.90
9265;DHT22;4669;49.594;10.958;2023-03-12T20:08:04;7.00;99.90
9265;DHT22;4669;49.594;10.958;2023-03-12T20:13:07;7.10;99.90
9265;DHT22;4669;49.594;10.958;2023-03-12T20:18:14;7.00;99.90
9265;DHT22;4669;49.594;10.958;2023-03-12T20:23:16;7.00;99.90
9265;DHT22;4669;49.594;10.958;2023-03-12T20:28:18;7.00;99.90
9265;DHT22;4669;49.594;10.958;2023-03-12T20:33:21;7.00;99.90
9265;DHT22;4669;49.594;10.958;2023-03-12T20:38:23;7.00;99.90
9265;DHT22;4669;49.594;10.958;2023-03-12T20:43:25;7.00;99.90
9265;DHT22;4669;49.594;10.958;2023-03-12T20:48:28;7.10;99.90
9265;DHT22;4669;49.594;10.958;2023-03-12T20:53:30;7.10;99.90
9265;DHT22;4669;49.594;10.958;2023-03-12T20:58:32;7.10;99.90
9265;DHT22;4669;49.594;10.958;2023-03-12T21:03:36;7.10;99.90
9265;DHT22;4669;49.594;10.958;2023-03-12T21:08:38;7.20;99.90
9265;DHT22;4669;49.594;10.958;2023-03-12T21:13:40;7.20;99.90
9265;DHT22;4669;49.594;10.958;2023-03-12T21:18:43;7.20;99.90
9265;DHT22;4669;49.594;10.958;2023-03-12T21:23:45;7.10;99.90
9265;DHT22;4669;49.594;10.958;2023-03-12T21:28:47;7.20;99.90
9265;DHT22;4669;49.594;10.958;2023-03-12T21:33:53;7.20;99.90
9265;DHT22;4669;49.594;10.958;2023-03-12T21:38:55;7.20;99.90
9265;DHT22;4669;49.594;10.958;2023-03-12T21:43:59;7.20;99.90
9265;DHT22;4669;49.594;10.958;2023-03-12T21:49:03;7.20;99.90
9265;DHT22;4669;49.594;10.958;2023-03-12T21:54:05;7.10;99.90
9265;DHT22;4669;49.594;10.958;2023-03-12T21:59:07;7.10;99.90
9265;DHT22;4669;49.594;10.958;2023-03-12T22:04:11;7.10;99.90
9265;DHT22;4669;49.594;10.958;2023-03-12T22:09:13;7.10;99.90
9265;DHT22;4669;49.594;10.958;2023-03-12T22:14:15;7.20;99.90
9265;DHT22;4669;49.594;10.958;2023-03-12T22:19:18;7.20;99.90
9265;DHT22;4669;49.594;10.958;2023-03-12T22:24:21;7.10;99.90
9265;DHT22;4669;49.594;10.958;2023-03-12T22:29:23;7.20;99.90
9265;DHT22;4669;49.594;10.958;2023-03-12T22:34:26;7.10;99.90
9265;DHT22;4669;49.594;10.958;2023-03-12T22:39:29;7.20;99.90
9265;DHT22;4669;49.594;10.958;2023-03-12T22:44:31;7.20;99.90
9265;DHT22;4669;49.594;10.958;2023-03-12T22:49:34;7.20;99.90
9265;DHT22;4669;49.594;10.958;2023-03-12T22:54:36;7.20;99.90
9265;DHT22;4669;49.594;10.958;2023-03-12T22:59:38;7.10;99.90
9265;DHT22;4669;49.594;10.958;2023-03-12T23:04:41;7.20;99.90
9265;DHT22;4669;49.594;10.958;2023-03-12T23:09:44;7.20;99.90
9265;DHT22;4669;49.594;10.958;2023-03-12T23:14:47;7.20;99.90
9265;DHT22;4669;49.594;10.958;2023-03-12T23:19:51;7.10;99.90
9265;DHT22;4669;49.594;10.958;2023-03-12T23:24:53;7.10;99.90
9265;DHT22;4669;49.594;10.958;2023-03-12T23:29:55;7.10;99.90
9265;DHT22;4669;49.594;10.958;2023-03-12T23:34:58;7.10;99.90
9265;DHT22;4669;49.594;10.958;2023-03-12T23:40:00;7.20;99.90
9265;DHT22;4669;49.594;10.958;2023-03-12T23:45:04;7.10;99.90
9265;DHT22;4669;49.594;10.958;2023-03-12T23:50:10;7.20;99.90
9265;DHT22;4669;49.594;10.958;2023-03-12T23:55:12;7.20;99.90
